sensor_id;sensor_type;location;lat;lon;timestamp;P1;durP1;ratioP1;P2;durP2;ratioP2
21245;SDS011;10781;50.928;4.440;2022-12-18T00:00:41;45.67;;;18.83;;
21245;SDS011;10781;50.928;4.440;2022-12-18T00:03:07;39.03;;;18.27;;
21245;SDS011;10781;50.928;4.440;2022-12-18T00:05:33;47.57;;;19.27;;
21245;SDS011;10781;50.928;4.440;2022-12-18T00:07:58;43.27;;;19.03;;
21245;SDS011;10781;50.928;4.440;2022-12-18T00:10:24;43.37;;;19.23;;
21245;SDS011;10781;50.928;4.440;2022-12-18T00:12:50;41.43;;;18.63;;
21245;SDS011;10781;50.928;4.440;2022-12-18T00:15:15;53.50;;;21.47;;
21245;SDS011;10781;50.928;4.440;2022-12-18T00:17:41;44.80;;;20.13;;
21245;SDS011;10781;50.928;4.440;2022-12-18T00:20:07;44.33;;;20.50;;
21245;SDS011;10781;50.928;4.440;2022-12-18T00:22:33;41.93;;;19.20;;
21245;SDS011;10781;50.928;4.440;2022-12-18T00:24:58;45.17;;;19.17;;
21245;SDS011;10781;50.928;4.440;2022-12-18T00:27:24;42.63;;;19.03;;
21245;SDS011;10781;50.928;4.440;2022-12-18T00:29:50;46.40;;;19.87;;
21245;SDS011;10781;50.928;4.440;2022-12-18T00:32:16;43.63;;;17.90;;
21245;SDS011;10781;50.928;4.440;2022-12-18T00:34:41;41.27;;;18.07;;
21245;SDS011;10781;50.928;4.440;2022-12-18T00:37:07;45.63;;;19.53;;
21245;SDS011;10781;50.928;4.440;2022-12-18T00:39:32;40.60;;;17.57;;
21245;SDS011;10781;50.928;4.440;2022-12-18T00:41:58;42.87;;;18.17;;
21245;SDS011;10781;50.928;4.440;2022-12-18T00:44:42;45.07;;;20.40;;
21245;SDS011;10781;50.928;4.440;2022-12-18T00:47:08;42.57;;;19.40;;
21245;SDS011;10781;50.928;4.440;2022-12-18T00:49:33;47.77;;;19.73;;
21245;SDS011;10781;50.928;4.440;2022-12-18T00:51:59;43.80;;;18.53;;
21245;SDS011;10781;50.928;4.440;2022-12-18T00:54:25;40.63;;;18.47;;
21245;SDS011;10781;50.928;4.440;2022-12-18T00:56:51;40.87;;;19.07;;
21245;SDS011;10781;50.928;4.440;2022-12-18T00:59:17;42.57;;;17.73;;
21245;SDS011;10781;50.928;4.440;2022-12-18T01:01:43;44.93;;;19.00;;
21245;SDS011;10781;50.928;4.440;2022-12-18T01:04:09;41.80;;;18.80;;
21245;SDS011;10781;50.928;4.440;2022-12-18T01:06:35;42.03;;;17.50;;
21245;SDS011;10781;50.928;4.440;2022-12-18T01:09:00;42.60;;;18.77;;
21245;SDS011;10781;50.928;4.440;2022-12-18T01:11:27;42.10;;;18.57;;
21245;SDS011;10781;50.928;4.440;2022-12-18T01:13:53;42.10;;;18.77;;
21245;SDS011;10781;50.928;4.440;2022-12-18T01:16:19;42.73;;;18.43;;
21245;SDS011;10781;50.928;4.440;2022-12-18T01:18:45;46.30;;;19.93;;
21245;SDS011;10781;50.928;4.440;2022-12-18T01:21:12;44.53;;;18.90;;
21245;SDS011;10781;50.928;4.440;2022-12-18T01:23:39;42.87;;;18.80;;
21245;SDS011;10781;50.928;4.440;2022-12-18T01:26:06;43.00;;;18.37;;
21245;SDS011;10781;50.928;4.440;2022-12-18T01:28:33;42.73;;;18.40;;
21245;SDS011;10781;50.928;4.440;2022-12-18T01:31:09;41.87;;;18.87;;
21245;SDS011;10781;50.928;4.440;2022-12-18T01:33:38;39.03;;;18.57;;
21245;SDS011;10781;50.928;4.440;2022-12-18T01:36:04;37.47;;;17.23;;
21245;SDS011;10781;50.928;4.440;2022-12-18T01:38:30;40.23;;;18.83;;
21245;SDS011;10781;50.928;4.440;2022-12-18T01:40:59;42.40;;;17.70;;
21245;SDS011;10781;50.928;4.440;2022-12-18T01:46:15;40.53;;;19.27;;
21245;SDS011;10781;50.928;4.440;2022-12-18T01:48:42;44.93;;;19.63;;
21245;SDS011;10781;50.928;4.440;2022-12-18T01:51:10;41.70;;;19.10;;
21245;SDS011;10781;50.928;4.440;2022-12-18T01:53:37;39.97;;;17.10;;
21245;SDS011;10781;50.928;4.440;2022-12-18T01:56:05;44.60;;;19.03;;
21245;SDS011;10781;50.928;4.440;2022-12-18T02:01:19;37.20;;;17.37;;
21245;SDS011;10781;50.928;4.440;2022-12-18T02:03:49;37.17;;;16.57;;
21245;SDS011;10781;50.928;4.440;2022-12-18T02:06:23;44.33;;;19.50;;
21245;SDS011;10781;50.928;4.440;2022-12-18T02:14:38;43.47;;;18.13;;
21245;SDS011;10781;50.928;4.440;2022-12-18T02:17:21;39.73;;;17.53;;
21245;SDS011;10781;50.928;4.440;2022-12-18T02:22:37;35.33;;;17.20;;
21245;SDS011;10781;50.928;4.440;2022-12-18T02:28:04;41.23;;;17.70;;
21245;SDS011;10781;50.928;4.440;2022-12-18T02:30:34;38.67;;;16.70;;
21245;SDS011;10781;50.928;4.440;2022-12-18T02:33:02;36.97;;;18.53;;
21245;SDS011;10781;50.928;4.440;2022-12-18T02:35:30;40.33;;;17.13;;
21245;SDS011;10781;50.928;4.440;2022-12-18T02:37:57;41.87;;;17.93;;
21245;SDS011;10781;50.928;4.440;2022-12-18T02:40:24;39.37;;;17.50;;
21245;SDS011;10781;50.928;4.440;2022-12-18T02:42:52;38.63;;;17.30;;
21245;SDS011;10781;50.928;4.440;2022-12-18T02:45:17;39.90;;;17.87;;
21245;SDS011;10781;50.928;4.440;2022-12-18T02:47:44;35.07;;;16.37;;
21245;SDS011;10781;50.928;4.440;2022-12-18T02:50:34;36.87;;;17.30;;
21245;SDS011;10781;50.928;4.440;2022-12-18T02:56:06;40.30;;;17.70;;
21245;SDS011;10781;50.928;4.440;2022-12-18T02:58:53;34.73;;;15.93;;
21245;SDS011;10781;50.928;4.440;2022-12-18T03:03:56;36.83;;;17.03;;
21245;SDS011;10781;50.928;4.440;2022-12-18T03:06:27;36.50;;;16.53;;
21245;SDS011;10781;50.928;4.440;2022-12-18T03:09:09;37.63;;;16.87;;
21245;SDS011;10781;50.928;4.440;2022-12-18T03:11:40;34.43;;;16.63;;
21245;SDS011;10781;50.928;4.440;2022-12-18T03:14:30;32.37;;;15.23;;
21245;SDS011;10781;50.928;4.440;2022-12-18T03:17:01;35.20;;;16.00;;
21245;SDS011;10781;50.928;4.440;2022-12-18T03:19:29;37.33;;;16.83;;
21245;SDS011;10781;50.928;4.440;2022-12-18T03:21:58;41.47;;;17.27;;
21245;SDS011;10781;50.928;4.440;2022-12-18T03:24:28;34.37;;;16.17;;
21245;SDS011;10781;50.928;4.440;2022-12-18T03:26:57;36.10;;;15.27;;
21245;SDS011;10781;50.928;4.440;2022-12-18T03:29:39;35.93;;;16.10;;
21245;SDS011;10781;50.928;4.440;2022-12-18T03:32:16;37.67;;;17.43;;
21245;SDS011;10781;50.928;4.440;2022-12-18T03:34:50;37.63;;;16.83;;
21245;SDS011;10781;50.928;4.440;2022-12-18T03:37:16;34.13;;;16.10;;
21245;SDS011;10781;50.928;4.440;2022-12-18T03:39:42;34.20;;;15.30;;
21245;SDS011;10781;50.928;4.440;2022-12-18T03:42:10;31.63;;;15.57;;
21245;SDS011;10781;50.928;4.440;2022-12-18T03:47:31;38.33;;;16.50;;
21245;SDS011;10781;50.928;4.440;2022-12-18T03:50:21;35.60;;;15.83;;
21245;SDS011;10781;50.928;4.440;2022-12-18T03:55:43;35.63;;;15.60;;
21245;SDS011;10781;50.928;4.440;2022-12-18T03:58:11;35.43;;;14.97;;
21245;SDS011;10781;50.928;4.440;2022-12-18T04:00:40;32.20;;;14.77;;
21245;SDS011;10781;50.928;4.440;2022-12-18T04:03:07;31.50;;;15.13;;
21245;SDS011;10781;50.928;4.440;2022-12-18T04:05:34;32.93;;;15.07;;
21245;SDS011;10781;50.928;4.440;2022-12-18T04:08:02;28.90;;;14.33;;
21245;SDS011;10781;50.928;4.440;2022-12-18T04:10:29;32.67;;;14.63;;
21245;SDS011;10781;50.928;4.440;2022-12-18T04:12:55;30.40;;;14.90;;
21245;SDS011;10781;50.928;4.440;2022-12-18T04:15:22;27.97;;;14.53;;
21245;SDS011;10781;50.928;4.440;2022-12-18T04:17:48;32.67;;;14.73;;
21245;SDS011;10781;50.928;4.440;2022-12-18T04:20:15;27.37;;;13.93;;
21245;SDS011;10781;50.928;4.440;2022-12-18T04:22:41;31.10;;;13.83;;
21245;SDS011;10781;50.928;4.440;2022-12-18T04:25:06;32.63;;;15.07;;
21245;SDS011;10781;50.928;4.440;2022-12-18T04:27:32;31.27;;;13.63;;
21245;SDS011;10781;50.928;4.440;2022-12-18T04:29:58;32.37;;;14.20;;
21245;SDS011;10781;50.928;4.440;2022-12-18T04:32:24;28.00;;;13.77;;
21245;SDS011;10781;50.928;4.440;2022-12-18T04:34:49;29.40;;;14.00;;
21245;SDS011;10781;50.928;4.440;2022-12-18T04:37:15;27.77;;;14.90;;
21245;SDS011;10781;50.928;4.440;2022-12-18T04:39:41;31.33;;;15.20;;
21245;SDS011;10781;50.928;4.440;2022-12-18T04:42:06;33.73;;;15.13;;
21245;SDS011;10781;50.928;4.440;2022-12-18T04:44:32;31.33;;;13.70;;
21245;SDS011;10781;50.928;4.440;2022-12-18T04:46:57;29.53;;;13.90;;
21245;SDS011;10781;50.928;4.440;2022-12-18T04:49:23;33.03;;;14.57;;
21245;SDS011;10781;50.928;4.440;2022-12-18T04:51:49;32.20;;;14.83;;
21245;SDS011;10781;50.928;4.440;2022-12-18T04:54:14;31.50;;;14.80;;
21245;SDS011;10781;50.928;4.440;2022-12-18T04:56:40;35.70;;;14.47;;
21245;SDS011;10781;50.928;4.440;2022-12-18T04:59:06;30.67;;;14.17;;
21245;SDS011;10781;50.928;4.440;2022-12-18T05:01:31;30.70;;;15.47;;
21245;SDS011;10781;50.928;4.440;2022-12-18T05:03:57;29.57;;;14.03;;
21245;SDS011;10781;50.928;4.440;2022-12-18T05:06:22;26.20;;;12.97;;
21245;SDS011;10781;50.928;4.440;2022-12-18T05:08:48;32.53;;;13.77;;
21245;SDS011;10781;50.928;4.440;2022-12-18T05:11:14;31.50;;;14.80;;
21245;SDS011;10781;50.928;4.440;2022-12-18T05:13:40;25.27;;;12.70;;
21245;SDS011;10781;50.928;4.440;2022-12-18T05:16:07;34.23;;;14.30;;
21245;SDS011;10781;50.928;4.440;2022-12-18T05:18:33;31.17;;;14.23;;
21245;SDS011;10781;50.928;4.440;2022-12-18T05:20:59;26.07;;;13.80;;
21245;SDS011;10781;50.928;4.440;2022-12-18T05:23:25;30.90;;;14.07;;
21245;SDS011;10781;50.928;4.440;2022-12-18T05:25:52;28.60;;;13.87;;
21245;SDS011;10781;50.928;4.440;2022-12-18T05:28:20;28.00;;;14.23;;
21245;SDS011;10781;50.928;4.440;2022-12-18T05:30:50;32.50;;;14.37;;
21245;SDS011;10781;50.928;4.440;2022-12-18T05:33:17;32.37;;;14.47;;
21245;SDS011;10781;50.928;4.440;2022-12-18T05:35:43;29.07;;;13.97;;
21245;SDS011;10781;50.928;4.440;2022-12-18T05:38:09;30.90;;;13.83;;
21245;SDS011;10781;50.928;4.440;2022-12-18T05:40:35;28.40;;;12.57;;
21245;SDS011;10781;50.928;4.440;2022-12-18T05:43:04;33.83;;;14.40;;
21245;SDS011;10781;50.928;4.440;2022-12-18T05:45:30;31.23;;;13.50;;
21245;SDS011;10781;50.928;4.440;2022-12-18T05:47:56;35.27;;;14.73;;
21245;SDS011;10781;50.928;4.440;2022-12-18T05:50:21;28.37;;;13.17;;
21245;SDS011;10781;50.928;4.440;2022-12-18T05:52:47;26.37;;;13.33;;
21245;SDS011;10781;50.928;4.440;2022-12-18T05:55:12;28.77;;;13.17;;
21245;SDS011;10781;50.928;4.440;2022-12-18T05:57:38;29.17;;;14.43;;
21245;SDS011;10781;50.928;4.440;2022-12-18T06:00:03;32.33;;;14.53;;
21245;SDS011;10781;50.928;4.440;2022-12-18T06:02:29;29.13;;;13.43;;
21245;SDS011;10781;50.928;4.440;2022-12-18T06:04:55;29.10;;;13.43;;
21245;SDS011;10781;50.928;4.440;2022-12-18T06:07:21;27.40;;;13.47;;
21245;SDS011;10781;50.928;4.440;2022-12-18T06:09:46;29.77;;;13.87;;
21245;SDS011;10781;50.928;4.440;2022-12-18T06:12:12;32.93;;;14.40;;
21245;SDS011;10781;50.928;4.440;2022-12-18T06:14:37;27.43;;;13.17;;
21245;SDS011;10781;50.928;4.440;2022-12-18T06:17:03;27.77;;;13.57;;
21245;SDS011;10781;50.928;4.440;2022-12-18T06:19:29;26.93;;;13.13;;
21245;SDS011;10781;50.928;4.440;2022-12-18T06:21:55;30.90;;;13.90;;
21245;SDS011;10781;50.928;4.440;2022-12-18T06:24:22;29.60;;;13.30;;
21245;SDS011;10781;50.928;4.440;2022-12-18T06:26:48;26.73;;;12.50;;
21245;SDS011;10781;50.928;4.440;2022-12-18T06:29:13;30.97;;;12.83;;
21245;SDS011;10781;50.928;4.440;2022-12-18T06:31:39;28.27;;;13.47;;
21245;SDS011;10781;50.928;4.440;2022-12-18T06:34:05;24.50;;;11.87;;
21245;SDS011;10781;50.928;4.440;2022-12-18T06:36:30;26.40;;;12.73;;
21245;SDS011;10781;50.928;4.440;2022-12-18T06:38:56;27.63;;;12.33;;
21245;SDS011;10781;50.928;4.440;2022-12-18T06:41:23;25.53;;;13.50;;
21245;SDS011;10781;50.928;4.440;2022-12-18T06:43:49;31.13;;;13.43;;
21245;SDS011;10781;50.928;4.440;2022-12-18T06:46:15;30.27;;;13.33;;
21245;SDS011;10781;50.928;4.440;2022-12-18T06:48:41;25.27;;;12.80;;
21245;SDS011;10781;50.928;4.440;2022-12-18T06:51:06;24.63;;;12.17;;
21245;SDS011;10781;50.928;4.440;2022-12-18T06:53:32;25.17;;;12.37;;
21245;SDS011;10781;50.928;4.440;2022-12-18T06:56:05;26.10;;;12.63;;
21245;SDS011;10781;50.928;4.440;2022-12-18T06:58:32;27.50;;;12.97;;
21245;SDS011;10781;50.928;4.440;2022-12-18T07:01:02;26.07;;;13.47;;
21245;SDS011;10781;50.928;4.440;2022-12-18T07:03:29;31.87;;;14.90;;
21245;SDS011;10781;50.928;4.440;2022-12-18T07:05:55;67.50;;;30.27;;
21245;SDS011;10781;50.928;4.440;2022-12-18T07:08:21;35.10;;;15.80;;
21245;SDS011;10781;50.928;4.440;2022-12-18T07:10:47;24.90;;;13.50;;
21245;SDS011;10781;50.928;4.440;2022-12-18T07:13:14;26.50;;;13.53;;
21245;SDS011;10781;50.928;4.440;2022-12-18T07:15:40;25.30;;;12.97;;
21245;SDS011;10781;50.928;4.440;2022-12-18T07:18:06;29.53;;;14.53;;
21245;SDS011;10781;50.928;4.440;2022-12-18T07:20:31;28.67;;;13.17;;
21245;SDS011;10781;50.928;4.440;2022-12-18T07:22:57;25.80;;;13.47;;
21245;SDS011;10781;50.928;4.440;2022-12-18T07:25:22;27.23;;;13.40;;
21245;SDS011;10781;50.928;4.440;2022-12-18T07:27:48;30.70;;;13.77;;
21245;SDS011;10781;50.928;4.440;2022-12-18T07:30:14;29.97;;;13.97;;
21245;SDS011;10781;50.928;4.440;2022-12-18T07:32:39;24.50;;;13.53;;
21245;SDS011;10781;50.928;4.440;2022-12-18T07:35:05;27.57;;;13.30;;
21245;SDS011;10781;50.928;4.440;2022-12-18T07:37:31;30.27;;;13.33;;
21245;SDS011;10781;50.928;4.440;2022-12-18T07:39:56;27.10;;;12.50;;
21245;SDS011;10781;50.928;4.440;2022-12-18T07:42:22;26.10;;;11.93;;
21245;SDS011;10781;50.928;4.440;2022-12-18T07:45:00;25.57;;;12.93;;
21245;SDS011;10781;50.928;4.440;2022-12-18T07:47:26;24.47;;;11.83;;
21245;SDS011;10781;50.928;4.440;2022-12-18T07:49:52;28.43;;;13.30;;
21245;SDS011;10781;50.928;4.440;2022-12-18T07:52:18;28.50;;;13.23;;
21245;SDS011;10781;50.928;4.440;2022-12-18T07:54:43;31.20;;;13.67;;
21245;SDS011;10781;50.928;4.440;2022-12-18T07:57:09;28.27;;;13.60;;
21245;SDS011;10781;50.928;4.440;2022-12-18T07:59:36;33.13;;;14.53;;
21245;SDS011;10781;50.928;4.440;2022-12-18T08:02:01;29.90;;;13.97;;
21245;SDS011;10781;50.928;4.440;2022-12-18T08:04:28;29.57;;;12.93;;
21245;SDS011;10781;50.928;4.440;2022-12-18T08:06:53;27.37;;;12.60;;
21245;SDS011;10781;50.928;4.440;2022-12-18T08:09:19;28.53;;;12.77;;
21245;SDS011;10781;50.928;4.440;2022-12-18T08:11:44;23.53;;;11.63;;
21245;SDS011;10781;50.928;4.440;2022-12-18T08:14:10;27.20;;;13.67;;
21245;SDS011;10781;50.928;4.440;2022-12-18T08:16:36;26.13;;;13.27;;
21245;SDS011;10781;50.928;4.440;2022-12-18T08:19:02;29.27;;;13.00;;
21245;SDS011;10781;50.928;4.440;2022-12-18T08:21:29;29.63;;;12.90;;
21245;SDS011;10781;50.928;4.440;2022-12-18T08:23:57;37.33;;;14.10;;
21245;SDS011;10781;50.928;4.440;2022-12-18T08:26:24;27.43;;;13.43;;
21245;SDS011;10781;50.928;4.440;2022-12-18T08:28:52;29.50;;;12.83;;
21245;SDS011;10781;50.928;4.440;2022-12-18T08:31:19;27.10;;;12.73;;
21245;SDS011;10781;50.928;4.440;2022-12-18T08:33:45;24.53;;;13.13;;
21245;SDS011;10781;50.928;4.440;2022-12-18T08:36:10;22.90;;;11.97;;
21245;SDS011;10781;50.928;4.440;2022-12-18T08:38:36;26.53;;;12.20;;
21245;SDS011;10781;50.928;4.440;2022-12-18T08:41:02;22.73;;;12.13;;
21245;SDS011;10781;50.928;4.440;2022-12-18T08:43:32;29.80;;;13.30;;
21245;SDS011;10781;50.928;4.440;2022-12-18T08:46:22;23.50;;;12.50;;
21245;SDS011;10781;50.928;4.440;2022-12-18T08:48:52;23.87;;;13.10;;
21245;SDS011;10781;50.928;4.440;2022-12-18T08:51:20;24.43;;;13.17;;
21245;SDS011;10781;50.928;4.440;2022-12-18T08:53:45;25.50;;;13.70;;
21245;SDS011;10781;50.928;4.440;2022-12-18T08:56:11;21.67;;;13.10;;
21245;SDS011;10781;50.928;4.440;2022-12-18T08:58:37;27.93;;;14.10;;
21245;SDS011;10781;50.928;4.440;2022-12-18T09:01:04;24.80;;;12.57;;
21245;SDS011;10781;50.928;4.440;2022-12-18T09:03:31;26.67;;;12.97;;
21245;SDS011;10781;50.928;4.440;2022-12-18T09:05:57;24.33;;;13.13;;
21245;SDS011;10781;50.928;4.440;2022-12-18T09:08:23;25.33;;;12.43;;
21245;SDS011;10781;50.928;4.440;2022-12-18T09:10:49;23.10;;;12.53;;
21245;SDS011;10781;50.928;4.440;2022-12-18T09:13:15;23.53;;;11.80;;
21245;SDS011;10781;50.928;4.440;2022-12-18T09:15:42;23.63;;;12.30;;
21245;SDS011;10781;50.928;4.440;2022-12-18T09:18:10;24.57;;;11.60;;
21245;SDS011;10781;50.928;4.440;2022-12-18T09:20:37;22.00;;;11.57;;
21245;SDS011;10781;50.928;4.440;2022-12-18T09:23:03;19.67;;;11.80;;
21245;SDS011;10781;50.928;4.440;2022-12-18T09:25:30;31.33;;;16.30;;
21245;SDS011;10781;50.928;4.440;2022-12-18T09:28:01;32.43;;;15.93;;
21245;SDS011;10781;50.928;4.440;2022-12-18T09:30:27;19.23;;;9.25;;
21245;SDS011;10781;50.928;4.440;2022-12-18T09:32:53;18.07;;;9.67;;
21245;SDS011;10781;50.928;4.440;2022-12-18T09:35:19;16.53;;;8.63;;
21245;SDS011;10781;50.928;4.440;2022-12-18T09:37:45;17.53;;;9.43;;
21245;SDS011;10781;50.928;4.440;2022-12-18T09:40:14;17.53;;;9.93;;
21245;SDS011;10781;50.928;4.440;2022-12-18T09:42:44;18.73;;;9.87;;
21245;SDS011;10781;50.928;4.440;2022-12-18T09:45:13;21.10;;;10.83;;
21245;SDS011;10781;50.928;4.440;2022-12-18T09:47:40;20.07;;;11.60;;
21245;SDS011;10781;50.928;4.440;2022-12-18T09:52:59;20.63;;;11.87;;
21245;SDS011;10781;50.928;4.440;2022-12-18T09:55:40;20.50;;;12.45;;
21245;SDS011;10781;50.928;4.440;2022-12-18T09:58:19;24.30;;;12.77;;
21245;SDS011;10781;50.928;4.440;2022-12-18T10:00:54;25.70;;;14.13;;
21245;SDS011;10781;50.928;4.440;2022-12-18T10:03:20;33.38;;;17.65;;
21245;SDS011;10781;50.928;4.440;2022-12-18T10:08:27;23.02;;;12.25;;
21245;SDS011;10781;50.928;4.440;2022-12-18T10:13:55;17.10;;;10.82;;
21245;SDS011;10781;50.928;4.440;2022-12-18T10:19:29;14.83;;;8.63;;
21245;SDS011;10781;50.928;4.440;2022-12-18T10:27:30;13.52;;;7.75;;
21245;SDS011;10781;50.928;4.440;2022-12-18T10:29:56;13.38;;;7.45;;
21245;SDS011;10781;50.928;4.440;2022-12-18T10:32:27;13.13;;;7.68;;
21245;SDS011;10781;50.928;4.440;2022-12-18T10:34:55;10.55;;;6.50;;
21245;SDS011;10781;50.928;4.440;2022-12-18T10:37:24;17.13;;;7.65;;
21245;SDS011;10781;50.928;4.440;2022-12-18T10:42:37;16.30;;;7.63;;
21245;SDS011;10781;50.928;4.440;2022-12-18T10:45:10;13.90;;;8.07;;
21245;SDS011;10781;50.928;4.440;2022-12-18T10:47:48;14.93;;;7.57;;
21245;SDS011;10781;50.928;4.440;2022-12-18T10:52:57;15.70;;;7.93;;
21245;SDS011;10781;50.928;4.440;2022-12-18T10:55:35;12.73;;;7.43;;
21245;SDS011;10781;50.928;4.440;2022-12-18T11:01:12;14.00;;;7.77;;
21245;SDS011;10781;50.928;4.440;2022-12-18T11:03:44;12.93;;;7.53;;
21245;SDS011;10781;50.928;4.440;2022-12-18T11:06:13;14.53;;;8.13;;
21245;SDS011;10781;50.928;4.440;2022-12-18T11:08:44;15.63;;;7.80;;
21245;SDS011;10781;50.928;4.440;2022-12-18T11:11:26;13.50;;;7.40;;
21245;SDS011;10781;50.928;4.440;2022-12-18T11:14:02;11.52;;;7.75;;
21245;SDS011;10781;50.928;4.440;2022-12-18T11:16:43;15.38;;;8.85;;
21245;SDS011;10781;50.928;4.440;2022-12-18T11:21:47;14.32;;;8.07;;
21245;SDS011;10781;50.928;4.440;2022-12-18T11:24:29;14.55;;;8.45;;
21245;SDS011;10781;50.928;4.440;2022-12-18T11:26:57;15.18;;;9.30;;
21245;SDS011;10781;50.928;4.440;2022-12-18T11:29:36;14.75;;;8.82;;
21245;SDS011;10781;50.928;4.440;2022-12-18T11:32:19;16.50;;;8.93;;
21245;SDS011;10781;50.928;4.440;2022-12-18T11:34:46;14.65;;;8.77;;
21245;SDS011;10781;50.928;4.440;2022-12-18T11:37:17;15.95;;;9.07;;
21245;SDS011;10781;50.928;4.440;2022-12-18T11:39:46;16.10;;;9.07;;
21245;SDS011;10781;50.928;4.440;2022-12-18T11:42:28;15.90;;;8.60;;
21245;SDS011;10781;50.928;4.440;2022-12-18T11:44:59;16.08;;;9.15;;
21245;SDS011;10781;50.928;4.440;2022-12-18T11:47:27;18.95;;;9.95;;
21245;SDS011;10781;50.928;4.440;2022-12-18T11:50:11;15.23;;;9.07;;
21245;SDS011;10781;50.928;4.440;2022-12-18T11:52:43;15.40;;;8.77;;
21245;SDS011;10781;50.928;4.440;2022-12-18T11:55:13;15.32;;;9.15;;
21245;SDS011;10781;50.928;4.440;2022-12-18T12:00:21;17.20;;;9.65;;
21245;SDS011;10781;50.928;4.440;2022-12-18T12:02:53;19.30;;;9.90;;
21245;SDS011;10781;50.928;4.440;2022-12-18T12:13:47;20.25;;;10.25;;
21245;SDS011;10781;50.928;4.440;2022-12-18T12:16:15;22.13;;;11.18;;
21245;SDS011;10781;50.928;4.440;2022-12-18T12:18:58;21.27;;;12.32;;
21245;SDS011;10781;50.928;4.440;2022-12-18T12:21:41;21.48;;;11.20;;
21245;SDS011;10781;50.928;4.440;2022-12-18T12:24:58;23.67;;;11.10;;
21245;SDS011;10781;50.928;4.440;2022-12-18T12:30:08;19.25;;;11.05;;
21245;SDS011;10781;50.928;4.440;2022-12-18T12:32:49;16.67;;;10.07;;
21245;SDS011;10781;50.928;4.440;2022-12-18T12:35:36;18.65;;;10.88;;
21245;SDS011;10781;50.928;4.440;2022-12-18T12:38:28;17.50;;;10.43;;
21245;SDS011;10781;50.928;4.440;2022-12-18T12:41:03;18.35;;;11.05;;
21245;SDS011;10781;50.928;4.440;2022-12-18T12:46:04;22.27;;;11.73;;
21245;SDS011;10781;50.928;4.440;2022-12-18T12:50:56;18.55;;;10.32;;
21245;SDS011;10781;50.928;4.440;2022-12-18T12:53:26;26.13;;;10.93;;
21245;SDS011;10781;50.928;4.440;2022-12-18T12:55:59;18.52;;;10.68;;
21245;SDS011;10781;50.928;4.440;2022-12-18T12:58:50;19.67;;;10.13;;
21245;SDS011;10781;50.928;4.440;2022-12-18T13:01:54;53.35;;;30.85;;
21245;SDS011;10781;50.928;4.440;2022-12-18T13:13:07;21.27;;;11.23;;
21245;SDS011;10781;50.928;4.440;2022-12-18T13:18:10;18.33;;;11.05;;
21245;SDS011;10781;50.928;4.440;2022-12-18T13:20:47;19.00;;;9.98;;
21245;SDS011;10781;50.928;4.440;2022-12-18T13:31:11;18.88;;;9.75;;
21245;SDS011;10781;50.928;4.440;2022-12-18T13:36:46;18.27;;;9.70;;
21245;SDS011;10781;50.928;4.440;2022-12-18T13:39:20;18.77;;;9.95;;
21245;SDS011;10781;50.928;4.440;2022-12-18T13:44:34;19.65;;;11.05;;
21245;SDS011;10781;50.928;4.440;2022-12-18T13:47:31;17.50;;;10.25;;
21245;SDS011;10781;50.928;4.440;2022-12-18T13:49:56;18.92;;;10.93;;
21245;SDS011;10781;50.928;4.440;2022-12-18T13:52:24;22.25;;;11.65;;
21245;SDS011;10781;50.928;4.440;2022-12-18T13:54:55;19.17;;;10.77;;
21245;SDS011;10781;50.928;4.440;2022-12-18T13:57:33;19.42;;;10.25;;
21245;SDS011;10781;50.928;4.440;2022-12-18T14:02:48;18.63;;;10.93;;
21245;SDS011;10781;50.928;4.440;2022-12-18T14:05:25;25.60;;;11.20;;
21245;SDS011;10781;50.928;4.440;2022-12-18T14:07:53;18.95;;;11.00;;
21245;SDS011;10781;50.928;4.440;2022-12-18T14:10:19;24.38;;;11.23;;
21245;SDS011;10781;50.928;4.440;2022-12-18T14:12:49;19.40;;;10.68;;
21245;SDS011;10781;50.928;4.440;2022-12-18T14:15:40;21.05;;;11.93;;
21245;SDS011;10781;50.928;4.440;2022-12-18T14:20:40;21.67;;;12.18;;
21245;SDS011;10781;50.928;4.440;2022-12-18T14:25:53;19.88;;;11.63;;
21245;SDS011;10781;50.928;4.440;2022-12-18T14:28:19;22.67;;;11.85;;
21245;SDS011;10781;50.928;4.440;2022-12-18T14:30:46;24.15;;;11.98;;
21245;SDS011;10781;50.928;4.440;2022-12-18T14:33:17;22.33;;;12.48;;
21245;SDS011;10781;50.928;4.440;2022-12-18T14:36:00;22.48;;;11.80;;
21245;SDS011;10781;50.928;4.440;2022-12-18T14:38:35;22.75;;;12.35;;
21245;SDS011;10781;50.928;4.440;2022-12-18T14:41:06;21.15;;;12.07;;
21245;SDS011;10781;50.928;4.440;2022-12-18T14:43:37;22.45;;;12.15;;
21245;SDS011;10781;50.928;4.440;2022-12-18T14:46:04;21.65;;;11.73;;
21245;SDS011;10781;50.928;4.440;2022-12-18T14:48:49;26.67;;;12.45;;
21245;SDS011;10781;50.928;4.440;2022-12-18T14:51:16;23.80;;;12.65;;
21245;SDS011;10781;50.928;4.440;2022-12-18T14:53:48;20.88;;;10.70;;
21245;SDS011;10781;50.928;4.440;2022-12-18T14:56:32;23.45;;;11.90;;
21245;SDS011;10781;50.928;4.440;2022-12-18T14:59:12;27.15;;;12.48;;
21245;SDS011;10781;50.928;4.440;2022-12-18T15:04:34;26.50;;;13.40;;
21245;SDS011;10781;50.928;4.440;2022-12-18T15:07:22;23.92;;;12.93;;
21245;SDS011;10781;50.928;4.440;2022-12-18T15:18:02;24.08;;;12.43;;
21245;SDS011;10781;50.928;4.440;2022-12-18T15:20:32;25.10;;;11.90;;
21245;SDS011;10781;50.928;4.440;2022-12-18T15:23:29;26.10;;;13.50;;
21245;SDS011;10781;50.928;4.440;2022-12-18T15:26:17;22.83;;;12.25;;
21245;SDS011;10781;50.928;4.440;2022-12-18T15:28:45;26.52;;;12.77;;
21245;SDS011;10781;50.928;4.440;2022-12-18T15:33:45;25.48;;;12.90;;
21245;SDS011;10781;50.928;4.440;2022-12-18T15:36:28;20.95;;;11.85;;
21245;SDS011;10781;50.928;4.440;2022-12-18T15:38:55;22.40;;;12.55;;
21245;SDS011;10781;50.928;4.440;2022-12-18T15:41:22;26.88;;;13.07;;
21245;SDS011;10781;50.928;4.440;2022-12-18T15:43:49;25.75;;;13.15;;
21245;SDS011;10781;50.928;4.440;2022-12-18T15:46:20;22.75;;;11.60;;
21245;SDS011;10781;50.928;4.440;2022-12-18T15:48:48;25.85;;;13.80;;
21245;SDS011;10781;50.928;4.440;2022-12-18T15:53:58;29.27;;;12.80;;
21245;SDS011;10781;50.928;4.440;2022-12-18T15:56:31;26.95;;;13.73;;
21245;SDS011;10781;50.928;4.440;2022-12-18T15:59:16;26.58;;;13.48;;
21245;SDS011;10781;50.928;4.440;2022-12-18T16:01:45;27.80;;;13.02;;
21245;SDS011;10781;50.928;4.440;2022-12-18T16:04:14;24.63;;;11.75;;
21245;SDS011;10781;50.928;4.440;2022-12-18T16:06:41;23.40;;;12.48;;
21245;SDS011;10781;50.928;4.440;2022-12-18T16:09:07;26.67;;;13.00;;
21245;SDS011;10781;50.928;4.440;2022-12-18T16:11:34;76.03;;;38.20;;
21245;SDS011;10781;50.928;4.440;2022-12-18T16:16:46;29.75;;;13.27;;
21245;SDS011;10781;50.928;4.440;2022-12-18T16:19:13;26.17;;;12.77;;
21245;SDS011;10781;50.928;4.440;2022-12-18T16:21:39;23.27;;;13.23;;
21245;SDS011;10781;50.928;4.440;2022-12-18T16:24:05;57.65;;;27.98;;
21245;SDS011;10781;50.928;4.440;2022-12-18T16:26:39;25.80;;;12.95;;
21245;SDS011;10781;50.928;4.440;2022-12-18T16:29:06;32.63;;;14.70;;
21245;SDS011;10781;50.928;4.440;2022-12-18T16:31:33;24.45;;;13.25;;
21245;SDS011;10781;50.928;4.440;2022-12-18T16:34:12;25.30;;;13.32;;
21245;SDS011;10781;50.928;4.440;2022-12-18T16:36:46;25.27;;;13.73;;
21245;SDS011;10781;50.928;4.440;2022-12-18T16:39:12;28.05;;;13.50;;
21245;SDS011;10781;50.928;4.440;2022-12-18T16:41:37;26.33;;;13.45;;
21245;SDS011;10781;50.928;4.440;2022-12-18T16:44:03;24.80;;;12.52;;